sensor_id;sensor_type;location;lat;lon;timestamp;P1;durP1;ratioP1;P2;durP2;ratioP2
71162;SDS011;58858;50.948;6.566;2023-08-30T00:06:16;11.18;;;4.70;;
71162;SDS011;58858;50.948;6.566;2023-08-30T00:16:17;11.55;;;4.53;;
71162;SDS011;58858;50.948;6.566;2023-08-30T00:26:18;9.90;;;4.50;;
71162;SDS011;58858;50.948;6.566;2023-08-30T00:36:19;8.23;;;3.97;;
71162;SDS011;58858;50.948;6.566;2023-08-30T00:46:21;10.40;;;4.03;;
71162;SDS011;58858;50.948;6.566;2023-08-30T00:56:22;12.90;;;4.80;;
71162;SDS011;58858;50.948;6.566;2023-08-30T01:06:23;6.65;;;4.15;;
71162;SDS011;58858;50.948;6.566;2023-08-30T01:16:24;7.32;;;4.03;;
71162;SDS011;58858;50.948;6.566;2023-08-30T01:37:01;8.35;;;4.30;;
71162;SDS011;58858;50.948;6.566;2023-08-30T01:47:03;10.90;;;4.05;;
71162;SDS011;58858;50.948;6.566;2023-08-30T01:57:04;9.95;;;3.83;;
71162;SDS011;58858;50.948;6.566;2023-08-30T02:07:20;6.57;;;3.97;;
71162;SDS011;58858;50.948;6.566;2023-08-30T02:17:26;5.95;;;3.22;;
71162;SDS011;58858;50.948;6.566;2023-08-30T02:27:27;5.38;;;3.60;;
71162;SDS011;58858;50.948;6.566;2023-08-30T02:37:28;10.45;;;5.70;;
71162;SDS011;58858;50.948;6.566;2023-08-30T02:47:29;8.27;;;5.30;;
71162;SDS011;58858;50.948;6.566;2023-08-30T02:57:30;8.73;;;5.13;;
71162;SDS011;58858;50.948;6.566;2023-08-30T03:07:31;8.45;;;5.25;;
71162;SDS011;58858;50.948;6.566;2023-08-30T03:17:32;7.35;;;4.80;;
71162;SDS011;58858;50.948;6.566;2023-08-30T03:27:33;7.63;;;4.70;;
71162;SDS011;58858;50.948;6.566;2023-08-30T03:37:37;6.65;;;5.32;;
71162;SDS011;58858;50.948;6.566;2023-08-30T03:47:38;11.20;;;6.18;;
71162;SDS011;58858;50.948;6.566;2023-08-30T03:57:39;9.73;;;5.13;;
71162;SDS011;58858;50.948;6.566;2023-08-30T04:07:40;9.15;;;6.60;;
71162;SDS011;58858;50.948;6.566;2023-08-30T04:17:41;6.45;;;4.95;;
71162;SDS011;58858;50.948;6.566;2023-08-30T04:27:42;10.00;;;7.75;;
71162;SDS011;58858;50.948;6.566;2023-08-30T04:37:43;9.70;;;7.15;;
71162;SDS011;58858;50.948;6.566;2023-08-30T04:47:44;7.95;;;6.95;;
71162;SDS011;58858;50.948;6.566;2023-08-30T04:57:46;12.95;;;7.38;;
71162;SDS011;58858;50.948;6.566;2023-08-30T05:07:50;13.00;;;7.65;;
71162;SDS011;58858;50.948;6.566;2023-08-30T05:17:52;11.82;;;7.25;;
71162;SDS011;58858;50.948;6.566;2023-08-30T05:27:54;9.70;;;7.35;;
71162;SDS011;58858;50.948;6.566;2023-08-30T05:37:55;10.65;;;6.28;;
71162;SDS011;58858;50.948;6.566;2023-08-30T05:48:22;10.10;;;6.75;;
71162;SDS011;58858;50.948;6.566;2023-08-30T05:58:23;13.10;;;6.13;;
71162;SDS011;58858;50.948;6.566;2023-08-30T06:08:25;8.25;;;6.65;;
71162;SDS011;58858;50.948;6.566;2023-08-30T06:18:29;8.45;;;6.35;;
71162;SDS011;58858;50.948;6.566;2023-08-30T06:28:30;8.97;;;5.60;;
71162;SDS011;58858;50.948;6.566;2023-08-30T06:38:31;9.75;;;6.55;;
71162;SDS011;58858;50.948;6.566;2023-08-30T06:48:32;7.05;;;5.53;;
71162;SDS011;58858;50.948;6.566;2023-08-30T06:58:33;9.38;;;5.55;;
71162;SDS011;58858;50.948;6.566;2023-08-30T07:08:34;10.57;;;5.65;;
71162;SDS011;58858;50.948;6.566;2023-08-30T07:18:35;10.27;;;5.00;;
71162;SDS011;58858;50.948;6.566;2023-08-30T07:28:36;11.63;;;5.65;;
71162;SDS011;58858;50.948;6.566;2023-08-30T07:38:38;10.75;;;4.90;;
71162;SDS011;58858;50.948;6.566;2023-08-30T07:48:39;11.68;;;4.40;;
71162;SDS011;58858;50.948;6.566;2023-08-30T07:58:40;6.53;;;3.80;;
71162;SDS011;58858;50.948;6.566;2023-08-30T08:08:43;3.25;;;2.15;;
71162;SDS011;58858;50.948;6.566;2023-08-30T08:18:44;7.78;;;3.10;;
71162;SDS011;58858;50.948;6.566;2023-08-30T08:28:45;6.53;;;3.15;;
71162;SDS011;58858;50.948;6.566;2023-08-30T08:38:47;4.45;;;2.05;;
71162;SDS011;58858;50.948;6.566;2023-08-30T08:48:48;10.35;;;3.22;;
71162;SDS011;58858;50.948;6.566;2023-08-30T08:58:50;7.35;;;2.03;;
71162;SDS011;58858;50.948;6.566;2023-08-30T09:08:51;3.40;;;2.40;;
71162;SDS011;58858;50.948;6.566;2023-08-30T09:18:59;10.05;;;2.33;;
71162;SDS011;58858;50.948;6.566;2023-08-30T09:29:09;3.97;;;1.80;;
71162;SDS011;58858;50.948;6.566;2023-08-30T09:39:12;8.25;;;2.05;;
71162;SDS011;58858;50.948;6.566;2023-08-30T09:49:13;5.30;;;2.85;;
71162;SDS011;58858;50.948;6.566;2023-08-30T09:59:14;5.75;;;1.60;;
71162;SDS011;58858;50.948;6.566;2023-08-30T10:09:16;4.03;;;1.45;;
71162;SDS011;58858;50.948;6.566;2023-08-30T10:19:26;4.13;;;2.47;;
71162;SDS011;58858;50.948;6.566;2023-08-30T10:29:28;2.63;;;1.13;;
71162;SDS011;58858;50.948;6.566;2023-08-30T10:39:33;2.33;;;1.58;;
71162;SDS011;58858;50.948;6.566;2023-08-30T10:49:41;3.75;;;1.70;;
71162;SDS011;58858;50.948;6.566;2023-08-30T11:10:17;3.17;;;1.75;;
71162;SDS011;58858;50.948;6.566;2023-08-30T11:20:21;4.07;;;1.80;;
71162;SDS011;58858;50.948;6.566;2023-08-30T11:30:25;3.28;;;1.67;;
71162;SDS011;58858;50.948;6.566;2023-08-30T11:40:26;2.10;;;1.80;;
71162;SDS011;58858;50.948;6.566;2023-08-30T11:50:28;2.75;;;1.55;;
71162;SDS011;58858;50.948;6.566;2023-08-30T12:00:32;2.30;;;1.10;;
71162;SDS011;58858;50.948;6.566;2023-08-30T12:10:34;1.43;;;1.33;;
71162;SDS011;58858;50.948;6.566;2023-08-30T12:20:35;2.10;;;1.00;;
71162;SDS011;58858;50.948;6.566;2023-08-30T12:30:36;1.75;;;1.10;;
71162;SDS011;58858;50.948;6.566;2023-08-30T12:40:37;1.95;;;1.00;;
71162;SDS011;58858;50.948;6.566;2023-08-30T12:50:38;1.45;;;1.23;;
71162;SDS011;58858;50.948;6.566;2023-08-30T13:00:40;3.05;;;1.10;;
71162;SDS011;58858;50.948;6.566;2023-08-30T13:10:41;1.00;;;0.90;;
71162;SDS011;58858;50.948;6.566;2023-08-30T13:20:42;2.17;;;0.90;;
71162;SDS011;58858;50.948;6.566;2023-08-30T13:30:44;2.25;;;1.73;;
71162;SDS011;58858;50.948;6.566;2023-08-30T13:40:45;5.97;;;2.13;;
71162;SDS011;58858;50.948;6.566;2023-08-30T13:50:46;4.13;;;2.72;;
71162;SDS011;58858;50.948;6.566;2023-08-30T14:00:48;3.35;;;2.35;;
71162;SDS011;58858;50.948;6.566;2023-08-30T14:10:49;2.42;;;2.22;;
71162;SDS011;58858;50.948;6.566;2023-08-30T14:20:50;5.78;;;4.15;;
71162;SDS011;58858;50.948;6.566;2023-08-30T14:30:51;4.47;;;3.05;;
71162;SDS011;58858;50.948;6.566;2023-08-30T14:40:56;3.65;;;2.25;;
71162;SDS011;58858;50.948;6.566;2023-08-30T14:50:59;3.80;;;2.15;;
71162;SDS011;58858;50.948;6.566;2023-08-30T15:01:00;2.88;;;1.90;;
71162;SDS011;58858;50.948;6.566;2023-08-30T15:11:01;3.88;;;1.90;;
71162;SDS011;58858;50.948;6.566;2023-08-30T15:21:04;2.88;;;2.10;;
71162;SDS011;58858;50.948;6.566;2023-08-30T15:31:05;6.32;;;2.40;;
71162;SDS011;58858;50.948;6.566;2023-08-30T15:41:08;4.50;;;2.10;;
71162;SDS011;58858;50.948;6.566;2023-08-30T15:51:09;4.70;;;2.10;;
71162;SDS011;58858;50.948;6.566;2023-08-30T16:01:10;3.97;;;2.72;;
71162;SDS011;58858;50.948;6.566;2023-08-30T16:11:13;6.20;;;2.50;;
71162;SDS011;58858;50.948;6.566;2023-08-30T16:21:14;3.00;;;2.35;;
71162;SDS011;58858;50.948;6.566;2023-08-30T16:31:15;3.67;;;2.30;;
71162;SDS011;58858;50.948;6.566;2023-08-30T16:41:18;7.40;;;3.15;;
71162;SDS011;58858;50.948;6.566;2023-08-30T16:51:19;5.88;;;2.55;;
71162;SDS011;58858;50.948;6.566;2023-08-30T17:01:20;3.95;;;2.50;;
71162;SDS011;58858;50.948;6.566;2023-08-30T17:11:21;6.40;;;2.92;;
71162;SDS011;58858;50.948;6.566;2023-08-30T17:21:22;4.53;;;1.20;;
71162;SDS011;58858;50.948;6.566;2023-08-30T17:31:24;2.05;;;0.93;;
71162;SDS011;58858;50.948;6.566;2023-08-30T17:41:26;3.67;;;1.05;;
71162;SDS011;58858;50.948;6.566;2023-08-30T17:51:29;4.05;;;1.40;;
71162;SDS011;58858;50.948;6.566;2023-08-30T18:01:30;2.95;;;0.85;;
71162;SDS011;58858;50.948;6.566;2023-08-30T18:11:31;2.88;;;1.10;;
71162;SDS011;58858;50.948;6.566;2023-08-30T18:21:32;6.35;;;2.30;;
71162;SDS011;58858;50.948;6.566;2023-08-30T18:31:35;2.50;;;1.55;;
71162;SDS011;58858;50.948;6.566;2023-08-30T18:41:36;3.78;;;1.92;;
71162;SDS011;58858;50.948;6.566;2023-08-30T18:51:37;4.75;;;1.90;;
71162;SDS011;58858;50.948;6.566;2023-08-30T19:01:38;4.18;;;1.73;;
71162;SDS011;58858;50.948;6.566;2023-08-30T19:11:39;9.80;;;2.53;;
71162;SDS011;58858;50.948;6.566;2023-08-30T19:21:40;2.83;;;0.90;;
71162;SDS011;58858;50.948;6.566;2023-08-30T19:31:42;3.70;;;1.50;;
71162;SDS011;58858;50.948;6.566;2023-08-30T19:41:43;2.83;;;0.93;;
71162;SDS011;58858;50.948;6.566;2023-08-30T19:51:45;2.03;;;0.85;;
71162;SDS011;58858;50.948;6.566;2023-08-30T20:01:46;5.45;;;1.27;;
71162;SDS011;58858;50.948;6.566;2023-08-30T20:11:47;4.38;;;1.20;;
71162;SDS011;58858;50.948;6.566;2023-08-30T20:21:48;5.60;;;1.17;;
71162;SDS011;58858;50.948;6.566;2023-08-30T20:31:49;6.13;;;1.73;;
71162;SDS011;58858;50.948;6.566;2023-08-30T20:41:50;3.88;;;1.45;;
71162;SDS011;58858;50.948;6.566;2023-08-30T20:51:54;7.00;;;1.75;;
71162;SDS011;58858;50.948;6.566;2023-08-30T21:01:55;3.08;;;1.85;;
71162;SDS011;58858;50.948;6.566;2023-08-30T21:11:57;6.53;;;2.67;;
71162;SDS011;58858;50.948;6.566;2023-08-30T21:22:19;4.75;;;2.33;;
71162;SDS011;58858;50.948;6.566;2023-08-30T21:32:45;4.75;;;1.90;;
71162;SDS011;58858;50.948;6.566;2023-08-30T21:43:06;4.53;;;1.75;;
71162;SDS011;58858;50.948;6.566;2023-08-30T21:53:43;4.10;;;1.60;;
71162;SDS011;58858;50.948;6.566;2023-08-30T22:03:44;6.70;;;3.17;;
71162;SDS011;58858;50.948;6.566;2023-08-30T22:13:45;5.85;;;1.58;;
71162;SDS011;58858;50.948;6.566;2023-08-30T22:23:46;16.70;;;1.70;;
71162;SDS011;58858;50.948;6.566;2023-08-30T22:33:47;17.42;;;2.47;;
71162;SDS011;58858;50.948;6.566;2023-08-30T22:44:15;6.70;;;1.50;;
71162;SDS011;58858;50.948;6.566;2023-08-30T22:54:16;4.57;;;1.75;;
71162;SDS011;58858;50.948;6.566;2023-08-30T23:05:02;6.78;;;2.03;;
71162;SDS011;58858;50.948;6.566;2023-08-30T23:15:22;6.63;;;2.17;;
71162;SDS011;58858;50.948;6.566;2023-08-30T23:25:23;6.07;;;2.38;;
71162;SDS011;58858;50.948;6.566;2023-08-30T23:35:50;6.93;;;2.83;;
71162;SDS011;58858;50.948;6.566;2023-08-30T23:46:10;6.28;;;2.90;;
71162;SDS011;58858;50.948;6.566;2023-08-30T23:56:20;7.82;;;2.22;;
